Time;durP1;ratioP1;P1;durP2;ratioP2;P2;SDS_P1;SDS_P2;PMS_P1;PMS_P2;Temp;Humidity;BMP_temperature;BMP_pressure;BME280_temperature;BME280_humidity;BME280_pressure;Samples;Min_cycle;Max_cycle;Signal;HPM_P1;HPM_P2
2024/01/04 00:00:25;;;;;;;14.07;5.13;;;9.20;99.90;;;;;;5092965;28;20154;-70
2024/01/04 00:02:51;;;;;;;12.15;5.30;;;9.20;99.90;;;;;;5103518;28;20031;-71
2024/01/04 00:05:17;;;;;;;15.05;5.60;;;9.20;99.90;;;;;;5113025;28;20051;-71
2024/01/04 00:07:42;;;;;;;15.00;6.18;;;9.10;99.90;;;;;;5094745;28;20030;-71
2024/01/04 00:10:08;;;;;;;10.00;5.60;;;9.20;99.90;;;;;;5099179;28;20377;-71
2024/01/04 00:12:34;;;;;;;16.92;5.53;;;9.10;99.90;;;;;;5111203;28;20043;-71
2024/01/04 00:15:03;;;;;;;14.70;5.53;;;9.20;99.90;;;;;;5104684;28;20024;-71
2024/01/04 00:17:32;;;;;;;17.70;5.05;;;9.10;99.90;;;;;;5112470;28;20099;-71
2024/01/04 00:19:57;;;;;;;12.00;4.57;;;9.10;99.90;;;;;;5097105;28;20039;-71
2024/01/04 00:22:23;;;;;;;14.50;4.45;;;9.10;99.90;;;;;;5094738;28;20035;-71
2024/01/04 00:24:49;;;;;;;8.10;4.00;;;9.10;99.90;;;;;;5112655;28;20080;-71
2024/01/04 00:27:14;;;;;;;10.25;4.03;;;9.00;99.90;;;;;;5113030;28;20042;-71
2024/01/04 00:29:42;;;;;;;12.45;4.55;;;8.90;99.90;;;;;;5089786;28;20032;-71
2024/01/04 00:32:07;;;;;;;12.05;4.78;;;8.90;99.90;;;;;;5112843;28;20091;-71
2024/01/04 00:34:33;;;;;;;11.57;4.50;;;8.80;99.90;;;;;;5112636;28;20055;-71
2024/01/04 00:36:59;;;;;;;11.85;4.55;;;8.80;99.90;;;;;;5112797;28;20061;-71
2024/01/04 00:39:24;;;;;;;10.02;3.85;;;8.70;99.90;;;;;;5112643;28;20024;-70
2024/01/04 00:41:53;;;;;;;11.00;3.83;;;8.70;99.90;;;;;;5109459;28;20117;-71
2024/01/04 00:44:19;;;;;;;11.38;4.00;;;8.70;99.90;;;;;;5098682;28;20032;-71
2024/01/04 00:46:45;;;;;;;14.68;4.13;;;8.70;99.90;;;;;;5112534;28;20073;-70
2024/01/04 00:49:11;;;;;;;7.82;3.10;;;8.70;99.90;;;;;;5111095;28;20023;-71
2024/01/04 00:51:37;;;;;;;10.27;3.45;;;8.70;99.90;;;;;;5112525;28;20540;-71
2024/01/04 00:54:03;;;;;;;6.18;3.30;;;8.70;99.90;;;;;;5108393;28;20532;-71
2024/01/04 00:56:33;;;;;;;13.40;3.58;;;8.70;99.90;;;;;;5111982;28;20092;-71
2024/01/04 00:58:59;;;;;;;13.43;3.72;;;8.70;99.90;;;;;;5112510;28;20465;-71
2024/01/04 01:01:25;;;;;;;8.50;3.50;;;8.70;99.90;;;;;;5104126;28;20032;-71
2024/01/04 01:03:51;;;;;;;14.93;4.30;;;8.70;99.90;;;;;;5101844;28;20453;-70
2024/01/04 01:06:16;;;;;;;5.82;3.47;;;8.70;99.90;;;;;;5108657;28;20028;-71
2024/01/04 01:08:42;;;;;;;8.65;3.47;;;8.70;99.90;;;;;;5112287;28;20032;-71
2024/01/04 01:11:08;;;;;;;10.60;3.65;;;8.80;99.90;;;;;;5112028;28;20039;-71
2024/01/04 01:13:34;;;;;;;7.63;3.58;;;8.80;99.90;;;;;;5111761;28;20106;-71
2024/01/04 01:16:00;;;;;;;10.50;3.38;;;8.80;99.90;;;;;;5104864;28;20110;-71
2024/01/04 01:18:26;;;;;;;10.82;3.70;;;8.80;99.90;;;;;;5112537;28;20030;-71
2024/01/04 01:20:53;;;;;;;8.43;3.20;;;8.80;99.90;;;;;;5112335;28;20028;-71
2024/01/04 01:23:19;;;;;;;8.27;3.40;;;8.80;99.90;;;;;;5094847;28;20058;-71
2024/01/04 01:25:44;;;;;;;8.48;3.45;;;8.90;99.90;;;;;;5115530;28;20465;-71
2024/01/04 01:28:10;;;;;;;6.43;3.20;;;8.90;99.90;;;;;;5115993;28;20433;-71
2024/01/04 01:30:35;;;;;;;8.98;3.55;;;8.90;99.90;;;;;;5114426;28;20500;-71
2024/01/04 01:33:01;;;;;;;10.27;3.20;;;9.00;99.90;;;;;;5115844;28;20067;-71
2024/01/04 01:35:26;;;;;;;12.45;3.50;;;9.00;99.90;;;;;;5115090;28;20047;-71
2024/01/04 01:37:52;;;;;;;10.55;3.50;;;9.00;99.90;;;;;;5115675;28;20034;-71
2024/01/04 01:40:17;;;;;;;13.82;3.67;;;9.00;99.90;;;;;;5096901;28;20032;-71
2024/01/04 01:42:49;;;;;;;11.90;3.58;;;9.00;99.90;;;;;;5095250;28;20032;-71
2024/01/04 01:45:20;;;;;;;12.25;3.30;;;9.00;99.90;;;;;;5103418;28;20024;-70
2024/01/04 01:47:48;;;;;;;7.32;3.10;;;9.00;99.90;;;;;;5112791;28;20028;-71
2024/01/04 01:50:20;;;;;;;9.88;3.22;;;9.00;99.90;;;;;;5114028;28;20031;-71
2024/01/04 01:52:47;;;;;;;7.70;3.55;;;9.00;99.90;;;;;;5112955;28;20430;-71
2024/01/04 01:55:17;;;;;;;8.60;3.22;;;9.00;99.90;;;;;;5114936;28;20028;-71
2024/01/04 01:57:43;;;;;;;8.23;3.03;;;9.00;99.90;;;;;;5111787;28;20055;-71
2024/01/04 02:00:11;;;;;;;9.95;3.28;;;9.00;99.90;;;;;;5096082;28;20044;-71
2024/01/04 02:02:37;;;;;;;8.77;3.60;;;9.00;99.90;;;;;;5107958;28;20023;-71
2024/01/04 02:05:02;;;;;;;6.88;3.13;;;9.00;99.90;;;;;;5114464;28;20059;-71
2024/01/04 02:07:29;;;;;;;7.78;3.40;;;9.00;99.90;;;;;;5115330;28;20086;-71
2024/01/04 02:09:54;;;;;;;9.23;3.05;;;9.00;99.90;;;;;;5112785;28;20032;-71
2024/01/04 02:12:20;;;;;;;7.60;3.47;;;9.10;99.90;;;;;;5094703;28;20038;-71
2024/01/04 02:14:48;;;;;;;4.80;3.10;;;9.10;99.90;;;;;;5111729;28;20047;-71
2024/01/04 02:17:13;;;;;;;7.35;3.00;;;9.10;99.90;;;;;;5115287;28;20035;-71
2024/01/04 02:19:39;;;;;;;9.82;3.05;;;9.10;99.90;;;;;;5113199;28;20024;-71
2024/01/04 02:22:05;;;;;;;13.52;3.40;;;9.10;99.90;;;;;;5115060;28;20084;-71
2024/01/04 02:24:30;;;;;;;7.53;3.28;;;9.10;99.90;;;;;;5110709;28;20422;-71
2024/01/04 02:26:56;;;;;;;10.00;3.50;;;9.10;99.90;;;;;;5114727;28;20055;-71
2024/01/04 02:29:21;;;;;;;7.50;3.30;;;9.00;99.90;;;;;;5114485;28;20031;-71
2024/01/04 02:31:51;;;;;;;8.27;3.55;;;9.00;99.90;;;;;;5113050;28;20076;-71
2024/01/04 02:34:16;;;;;;;7.72;3.72;;;9.00;99.90;;;;;;5112984;28;20055;-71
2024/01/04 02:36:42;;;;;;;5.57;3.58;;;9.00;99.90;;;;;;5114179;28;20027;-71
2024/01/04 02:39:09;;;;;;;8.75;3.80;;;8.90;99.90;;;;;;5114541;28;20054;-71
2024/01/04 02:41:34;;;;;;;9.63;3.65;;;8.90;99.90;;;;;;5114561;28;20480;-71
2024/01/04 02:44:00;;;;;;;6.82;3.53;;;8.90;99.90;;;;;;5114452;28;20058;-71
2024/01/04 02:46:26;;;;;;;6.22;3.47;;;8.90;99.90;;;;;;5114249;28;20023;-71
2024/01/04 02:48:51;;;;;;;8.10;3.90;;;8.90;99.90;;;;;;5110235;28;20526;-71
2024/01/04 02:51:17;;;;;;;9.32;3.50;;;9.00;99.90;;;;;;5113830;28;20039;-71
2024/01/04 02:53:42;;;;;;;13.30;4.13;;;9.00;99.90;;;;;;5114478;28;20024;-71
2024/01/04 02:56:08;;;;;;;7.40;3.67;;;9.00;99.90;;;;;;5114286;28;20027;-71
2024/01/04 02:58:33;;;;;;;8.45;3.50;;;9.10;99.90;;;;;;5114459;28;20080;-71
2024/01/04 03:00:59;;;;;;;10.45;3.70;;;9.10;99.90;;;;;;5114129;28;20032;-71
2024/01/04 03:03:24;;;;;;;10.23;3.88;;;9.10;99.90;;;;;;5112326;28;20052;-71
2024/01/04 03:05:51;;;;;;;9.30;3.97;;;9.10;99.90;;;;;;5113863;28;20062;-71
2024/01/04 03:08:16;;;;;;;6.65;3.88;;;9.10;99.90;;;;;;5113825;28;20514;-71
2024/01/04 03:10:42;;;;;;;6.75;3.90;;;9.00;99.90;;;;;;5105279;28;20024;-71
2024/01/04 03:13:07;;;;;;;7.60;4.00;;;9.00;99.90;;;;;;5093392;28;20489;-71
2024/01/04 03:15:33;;;;;;;19.40;4.70;;;9.00;99.90;;;;;;5102770;28;20419;-71
2024/01/04 03:17:59;;;;;;;13.00;4.13;;;9.00;99.90;;;;;;5111703;28;20385;-71
2024/01/04 03:20:24;;;;;;;7.95;4.20;;;9.00;99.90;;;;;;5111888;28;20035;-71
2024/01/04 03:22:50;;;;;;;20.33;5.20;;;9.00;99.90;;;;;;5113606;28;20062;-71
2024/01/04 03:25:15;;;;;;;10.95;5.15;;;9.00;99.90;;;;;;5113903;28;20015;-71
2024/01/04 03:27:42;;;;;;;7.68;4.47;;;9.00;99.90;;;;;;5113965;28;20031;-71
2024/01/04 03:30:08;;;;;;;12.32;5.20;;;9.00;99.90;;;;;;5113912;28;20027;-71
2024/01/04 03:32:33;;;;;;;11.15;5.18;;;9.00;99.90;;;;;;5113565;28;20053;-71
2024/01/04 03:34:59;;;;;;;6.47;5.00;;;9.00;99.90;;;;;;5113615;28;20106;-71
2024/01/04 03:37:25;;;;;;;9.95;5.32;;;8.90;99.90;;;;;;5113453;28;20027;-71
2024/01/04 03:39:51;;;;;;;10.73;5.07;;;9.00;99.90;;;;;;5109338;28;20020;-71
2024/01/04 03:42:17;;;;;;;10.32;5.00;;;9.00;99.90;;;;;;5102070;28;20028;-71
2024/01/04 03:44:43;;;;;;;8.93;5.00;;;8.90;99.90;;;;;;5108420;28;20103;-71
2024/01/04 03:47:09;;;;;;;11.07;5.20;;;9.00;99.90;;;;;;5092287;28;20128;-71
2024/01/04 03:49:35;;;;;;;11.73;5.43;;;9.00;99.90;;;;;;5113298;28;20066;-71
2024/01/04 03:52:01;;;;;;;11.05;6.15;;;9.00;99.90;;;;;;5112516;28;20043;-71
2024/01/04 03:54:27;;;;;;;10.18;5.20;;;9.00;99.90;;;;;;5112523;28;20023;-71
2024/01/04 03:56:53;;;;;;;15.05;5.93;;;9.00;99.90;;;;;;5113362;28;20076;-71
2024/01/04 03:59:20;;;;;;;11.18;5.60;;;9.00;99.90;;;;;;5095043;28;20401;-71
2024/01/04 04:01:46;;;;;;;13.82;5.60;;;9.00;99.90;;;;;;5113035;28;20054;-71
2024/01/04 04:04:12;;;;;;;10.82;5.57;;;9.00;99.90;;;;;;5105847;28;20481;-71
2024/01/04 04:06:39;;;;;;;11.63;5.82;;;9.00;99.90;;;;;;5109633;28;20385;-71
2024/01/04 04:09:06;;;;;;;10.40;5.93;;;9.00;99.90;;;;;;5112601;27;20069;-71
2024/01/04 04:11:32;;;;;;;13.98;6.32;;;9.00;99.90;;;;;;5109564;28;20495;-72
2024/01/04 04:13:58;;;;;;;8.30;5.80;;;9.00;99.90;;;;;;5112554;28;20020;-71
2024/01/04 04:16:23;;;;;;;12.98;6.07;;;9.00;99.90;;;;;;5111686;28;20030;-71
2024/01/04 04:18:49;;;;;;;9.05;6.10;;;9.00;99.90;;;;;;5108845;28;20028;-71
2024/01/04 04:21:22;;;;;;;11.95;6.30;;;9.00;99.90;;;;;;5112555;28;20034;-71
2024/01/04 04:23:52;;;;;;;11.55;6.40;;;9.00;99.90;;;;;;5110317;28;20196;-71
2024/01/04 04:26:21;;;;;;;15.85;6.68;;;9.00;99.90;;;;;;5112632;28;20024;-71
2024/01/04 04:28:50;;;;;;;16.77;6.28;;;9.00;99.90;;;;;;5109466;28;20055;-71
2024/01/04 04:31:17;;;;;;;12.10;6.35;;;9.10;99.90;;;;;;5109102;28;20048;-70
2024/01/04 04:33:45;;;;;;;14.68;6.40;;;9.10;99.90;;;;;;5110837;28;20396;-70
2024/01/04 04:36:11;;;;;;;17.00;6.60;;;9.10;99.90;;;;;;5112000;28;20055;-71
2024/01/04 04:38:36;;;;;;;13.85;7.38;;;9.10;99.90;;;;;;5112267;28;20022;-70
2024/01/04 04:41:06;;;;;;;12.52;6.22;;;9.10;99.90;;;;;;5112124;28;20107;-71
2024/01/04 04:43:32;;;;;;;15.80;5.80;;;9.00;99.90;;;;;;5112103;28;20461;-70
2024/01/04 04:45:58;;;;;;;13.15;6.30;;;9.10;99.90;;;;;;5112139;28;20031;-71
2024/01/04 04:48:24;;;;;;;17.52;6.07;;;9.00;99.90;;;;;;5112260;28;20024;-70
2024/01/04 04:50:50;;;;;;;12.30;5.65;;;9.00;99.90;;;;;;5108874;28;20081;-71
2024/01/04 04:53:16;;;;;;;14.77;6.80;;;9.00;99.90;;;;;;5097521;28;20511;-71
2024/01/04 04:55:42;;;;;;;16.75;7.00;;;9.00;99.90;;;;;;5112141;28;20024;-71
2024/01/04 04:58:08;;;;;;;11.70;6.10;;;9.00;99.90;;;;;;5111602;28;20088;-71
2024/01/04 05:00:34;;;;;;;11.85;6.60;;;9.00;99.90;;;;;;5116374;28;20036;-71
2024/01/04 05:02:59;;;;;;;10.05;5.80;;;9.00;99.90;;;;;;5116201;28;20054;-71
2024/01/04 05:05:25;;;;;;;12.95;6.80;;;9.00;99.90;;;;;;5116431;28;20023;-71
2024/01/04 05:07:50;;;;;;;10.05;7.15;;;9.00;99.90;;;;;;5099650;28;20039;-71
2024/01/04 05:10:16;;;;;;;13.20;6.35;;;9.00;99.90;;;;;;5095911;28;20382;-71
2024/01/04 05:12:41;;;;;;;14.13;6.80;;;9.00;99.90;;;;;;5095735;28;20032;-71
2024/01/04 05:15:07;;;;;;;14.85;7.60;;;9.00;99.90;;;;;;5095812;28;20145;-71
2024/01/04 05:17:33;;;;;;;12.13;7.00;;;9.00;99.90;;;;;;5113568;28;20120;-71
2024/01/04 05:19:58;;;;;;;17.00;6.65;;;9.00;99.90;;;;;;5110133;28;20489;-71
2024/01/04 05:22:24;;;;;;;15.15;6.55;;;9.00;99.90;;;;;;5108196;28;20416;-71
2024/01/04 05:24:49;;;;;;;16.15;6.68;;;9.00;99.90;;;;;;5095939;28;20028;-71
2024/01/04 05:27:15;;;;;;;13.75;6.53;;;9.00;99.90;;;;;;5095894;28;20057;-71
2024/01/04 05:29:41;;;;;;;12.73;7.35;;;8.90;99.90;;;;;;5095219;28;20389;-71
2024/01/04 05:32:06;;;;;;;11.93;7.00;;;8.90;99.90;;;;;;5095518;28;20524;-70
2024/01/04 05:34:32;;;;;;;17.05;7.05;;;8.90;99.90;;;;;;5095635;28;20109;-71
2024/01/04 05:36:58;;;;;;;15.93;7.00;;;9.00;99.90;;;;;;5094362;28;20115;-71
2024/01/04 05:39:25;;;;;;;14.93;5.97;;;8.90;99.90;;;;;;5077356;28;20055;-71
2024/01/04 05:41:51;;;;;;;14.73;7.13;;;8.90;99.90;;;;;;5094820;28;20389;-71
2024/01/04 05:44:17;;;;;;;17.33;7.40;;;8.90;99.90;;;;;;5095255;28;20036;-71
2024/01/04 05:46:43;;;;;;;17.77;7.10;;;8.90;99.90;;;;;;5095428;28;20024;-71
2024/01/04 05:49:09;;;;;;;12.35;7.90;;;8.90;99.90;;;;;;5095332;28;20472;-71
2024/01/04 05:51:34;;;;;;;13.18;6.93;;;9.00;99.90;;;;;;5095137;28;20035;-71
2024/01/04 05:54:02;;;;;;;9.52;6.60;;;9.00;99.90;;;;;;5094352;28;20067;-71
2024/01/04 05:56:27;;;;;;;23.95;7.38;;;9.00;99.90;;;;;;5095320;28;20048;-71
2024/01/04 05:58:53;;;;;;;15.80;6.28;;;9.00;99.90;;;;;;5105248;28;20054;-71
2024/01/04 06:01:18;;;;;;;19.85;6.80;;;9.00;99.90;;;;;;5115289;28;20065;-71
2024/01/04 06:03:44;;;;;;;17.27;6.30;;;9.00;99.90;;;;;;5115159;28;20104;-71
2024/01/04 06:06:14;;;;;;;17.13;7.20;;;9.00;99.90;;;;;;5114974;28;20028;-71
2024/01/04 06:08:43;;;;;;;14.90;7.07;;;9.00;99.90;;;;;;5115632;28;20038;-71
2024/01/04 06:11:09;;;;;;;16.05;7.90;;;9.00;99.90;;;;;;5099828;28;20020;-71
2024/01/04 06:13:36;;;;;;;17.83;9.35;;;9.00;99.90;;;;;;5114971;28;20028;-71
2024/01/04 06:16:08;;;;;;;14.90;8.80;;;9.00;99.90;;;;;;5115259;28;20049;-71
2024/01/04 06:18:34;;;;;;;;;;;9.00;99.90;;;;;;5114812;28;20027;-71
2024/01/04 06:21:00;;;;;;;15.65;8.15;;;9.00;99.90;;;;;;5112555;28;19931;-71
2024/01/04 06:23:26;;;;;;;11.90;8.38;;;8.90;99.90;;;;;;5115273;28;20398;-71
2024/01/04 06:25:51;;;;;;;14.98;8.30;;;8.90;99.90;;;;;;5115058;28;20728;-71
2024/01/04 06:28:17;;;;;;;14.10;8.13;;;8.90;99.90;;;;;;5115027;28;20103;-71
2024/01/04 06:30:42;;;;;;;14.70;7.47;;;8.90;99.90;;;;;;5114925;28;20027;-70
2024/01/04 06:33:08;;;;;;;15.30;7.75;;;9.00;99.90;;;;;;5111934;28;20387;-71
2024/01/04 06:35:34;;;;;;;16.88;8.32;;;9.00;99.90;;;;;;5094385;28;20070;-71
2024/01/04 06:37:59;;;;;;;15.57;8.10;;;9.00;99.90;;;;;;5093475;28;20102;-71
2024/01/04 06:40:25;;;;;;;19.77;8.10;;;9.00;99.90;;;;;;5094434;28;20028;-71
2024/01/04 06:42:55;;;;;;;13.85;7.43;;;9.00;99.90;;;;;;5094429;28;20028;-71
2024/01/04 06:45:24;;;;;;;11.95;8.93;;;9.00;99.90;;;;;;5076170;28;20440;-70
2024/01/04 06:47:50;;;;;;;16.50;8.48;;;9.00;99.90;;;;;;5094370;28;20032;-70
2024/01/04 06:50:15;;;;;;;10.60;8.50;;;9.00;99.90;;;;;;5094218;28;20024;-70
2024/01/04 06:52:41;;;;;;;12.82;7.80;;;9.00;99.90;;;;;;5093741;28;20082;-71
2024/01/04 06:55:08;;;;;;;20.10;8.20;;;9.00;99.90;;;;;;5094186;28;20056;-71
2024/01/04 06:57:33;;;;;;;15.95;9.20;;;9.10;99.90;;;;;;5094363;28;20109;-71
2024/01/04 06:59:59;;;;;;;14.85;7.82;;;9.10;99.90;;;;;;5094103;28;20464;-71
2024/01/04 07:02:25;;;;;;;10.77;6.40;;;9.10;99.90;;;;;;5094002;28;20432;-71
2024/01/04 07:04:50;;;;;;;11.98;5.82;;;9.10;99.90;;;;;;5094041;28;20470;-71
2024/01/04 07:07:16;;;;;;;11.25;6.65;;;9.10;99.90;;;;;;5093389;28;20114;-71
2024/01/04 07:09:41;;;;;;;15.10;6.45;;;9.10;99.90;;;;;;5093839;28;20039;-71
2024/01/04 07:12:07;;;;;;;19.73;7.60;;;9.00;99.90;;;;;;5108036;28;20071;-71
2024/01/04 07:14:38;;;;;;;13.23;7.15;;;9.00;99.90;;;;;;5113238;28;20106;-71
2024/01/04 07:17:03;;;;;;;12.75;7.28;;;9.00;99.90;;;;;;5113919;28;20044;-71
2024/01/04 07:19:29;;;;;;;9.85;6.80;;;9.00;99.90;;;;;;5113611;28;20028;-71
2024/01/04 07:21:55;;;;;;;11.90;7.10;;;9.00;99.90;;;;;;5095448;28;20536;-71
2024/01/04 07:24:21;;;;;;;12.45;6.10;;;9.00;99.90;;;;;;5106835;28;20031;-71
2024/01/04 07:26:47;;;;;;;15.70;6.50;;;9.00;99.90;;;;;;5114045;28;20020;-71
2024/01/04 07:29:46;;;;;;;10.57;6.28;;;9.00;99.90;;;;;;5112200;28;20824;-72
2024/01/04 07:32:15;;;;;;;13.80;6.45;;;9.00;99.90;;;;;;5103966;28;20465;-71
2024/01/04 07:34:41;;;;;;;12.57;6.20;;;9.00;99.90;;;;;;5112615;28;20396;-71
2024/01/04 07:37:07;;;;;;;13.20;5.78;;;9.00;99.90;;;;;;5113530;28;20023;-71
2024/01/04 07:39:33;;;;;;;12.35;6.93;;;8.90;99.90;;;;;;5113387;28;20034;-71
2024/01/04 07:41:59;;;;;;;13.18;5.97;;;8.90;99.90;;;;;;5111241;28;20382;-71
2024/01/04 07:44:24;;;;;;;13.70;6.95;;;8.80;99.90;;;;;;5113069;28;20362;-71
2024/01/04 07:46:50;;;;;;;13.82;7.13;;;8.80;99.90;;;;;;5112831;28;20032;-71
2024/01/04 07:49:15;;;;;;;29.75;10.23;;;8.80;99.90;;;;;;5110875;27;20038;-71
2024/01/04 07:51:41;;;;;;;44.88;12.07;;;8.80;99.90;;;;;;5116058;27;20039;-71
2024/01/04 07:54:07;;;;;;;87.55;15.93;;;8.80;99.90;;;;;;5116229;27;20057;-71
2024/01/04 07:56:32;;;;;;;16.42;9.02;;;8.80;99.90;;;;;;5116399;27;20023;-71
2024/01/04 07:58:58;;;;;;;16.65;8.80;;;8.80;99.90;;;;;;5115470;27;20365;-71
2024/01/04 08:01:24;;;;;;;20.70;10.85;;;8.90;99.90;;;;;;5127633;27;20491;-71
2024/01/04 08:03:49;;;;;;;14.18;8.98;;;8.90;99.90;;;;;;5116765;27;20112;-71
2024/01/04 08:06:15;;;;;;;18.45;9.30;;;8.90;99.90;;;;;;5095697;28;20040;-71
2024/01/04 08:08:41;;;;;;;22.00;9.57;;;8.90;99.90;;;;;;5101086;28;20035;-71
2024/01/04 08:11:08;;;;;;;20.00;9.68;;;8.90;99.90;;;;;;5111867;28;20517;-71
2024/01/04 08:13:33;;;;;;;276.67;37.70;;;9.00;99.90;;;;;;5112670;28;20031;-71
2024/01/04 08:16:00;;;;;;;39.35;10.93;;;9.00;99.90;;;;;;5112516;28;20507;-71
2024/01/04 08:18:26;;;;;;;16.27;9.68;;;9.00;99.90;;;;;;5109621;28;20051;-71
2024/01/04 08:20:52;;;;;;;19.45;10.38;;;9.10;99.90;;;;;;5104741;28;20136;-71
2024/01/04 08:23:17;;;;;;;60.17;12.70;;;9.10;99.90;;;;;;5107334;28;20036;-71
2024/01/04 08:25:43;;;;;;;12.23;7.57;;;9.10;99.90;;;;;;5108475;28;20019;-71
2024/01/04 08:28:09;;;;;;;79.57;14.68;;;9.10;99.90;;;;;;5112087;28;20028;-71
2024/01/04 08:30:35;;;;;;;17.33;7.50;;;9.00;99.90;;;;;;5110895;28;20148;-71
2024/01/04 08:33:01;;;;;;;14.30;6.72;;;8.90;99.90;;;;;;5109841;28;20114;-71
2024/01/04 08:35:26;;;;;;;20.48;6.82;;;8.90;99.90;;;;;;5114452;28;20491;-71
2024/01/04 08:37:52;;;;;;;18.80;6.80;;;8.90;99.90;;;;;;5116114;28;20019;-71
2024/01/04 08:40:18;;;;;;;14.43;5.60;;;8.80;99.90;;;;;;5111176;28;20122;-72
2024/01/04 08:42:45;;;;;;;13.63;5.32;;;8.80;99.90;;;;;;5115733;28;20082;-71
2024/01/04 08:45:10;;;;;;;5.28;3.42;;;8.70;99.90;;;;;;5112861;28;20024;-71
2024/01/04 08:47:36;;;;;;;2.83;2.72;;;8.70;99.90;;;;;;5097141;28;20495;-71
2024/01/04 08:50:02;;;;;;;2.50;2.40;;;8.60;99.90;;;;;;5112725;28;20016;-71
2024/01/04 08:52:28;;;;;;;2.20;2.20;;;8.60;99.90;;;;;;5116052;28;20036;-71
2024/01/04 08:54:54;;;;;;;3.15;2.95;;;8.60;99.90;;;;;;5115727;28;20114;-71
2024/01/04 08:57:20;;;;;;;2.10;2.10;;;8.60;99.90;;;;;;5114911;28;20107;-71
2024/01/04 08:59:45;;;;;;;2.05;2.05;;;8.60;99.90;;;;;;5115781;28;20019;-71
2024/01/04 09:02:11;;;;;;;2.90;2.75;;;8.60;99.90;;;;;;5112252;28;20436;-71
2024/01/04 09:04:36;;;;;;;2.15;2.15;;;8.60;99.90;;;;;;5113289;28;20040;-71
2024/01/04 09:07:02;;;;;;;2.95;2.75;;;8.60;99.90;;;;;;5109401;28;20027;-71
2024/01/04 09:09:28;;;;;;;2.55;2.45;;;8.60;99.90;;;;;;5113599;28;20373;-71
2024/01/04 09:11:54;;;;;;;2.45;2.35;;;8.60;99.90;;;;;;5114843;28;20461;-71
2024/01/04 09:14:20;;;;;;;2.30;2.20;;;8.60;99.90;;;;;;5115658;28;20031;-71
2024/01/04 09:16:46;;;;;;;2.10;2.10;;;8.60;99.90;;;;;;5112833;28;20492;-71
2024/01/04 09:19:16;;;;;;;2.35;2.25;;;8.70;99.90;;;;;;5109033;28;20016;-71
2024/01/04 09:21:43;;;;;;;2.67;2.47;;;8.60;99.90;;;;;;5113217;28;20026;-71
2024/01/04 09:24:10;;;;;;;2.10;2.10;;;8.60;99.90;;;;;;5115019;28;20057;-71
2024/01/04 09:26:42;;;;;;;2.70;2.60;;;8.60;99.90;;;;;;5114304;28;20557;-71
2024/01/04 09:29:09;;;;;;;2.38;2.38;;;8.60;99.90;;;;;;5115111;28;20053;-71
2024/01/04 09:31:35;;;;;;;3.47;3.17;;;8.60;99.90;;;;;;5113980;28;20452;-71
2024/01/04 09:34:01;;;;;;;2.50;2.42;;;8.60;99.90;;;;;;5114745;28;20055;-71
2024/01/04 09:36:26;;;;;;;2.83;2.72;;;8.60;99.90;;;;;;5114818;28;20055;-71
2024/01/04 09:38:52;;;;;;;3.00;2.90;;;8.50;99.90;;;;;;5112748;28;20376;-71
2024/01/04 09:41:30;;;;;;;2.83;2.72;;;8.50;99.90;;;;;;5100610;28;20030;-71
2024/01/04 09:44:01;;;;;;;3.10;3.00;;;8.40;99.90;;;;;;5113347;28;20399;-71
2024/01/04 09:46:34;;;;;;;2.65;2.55;;;8.40;99.90;;;;;;5114491;28;20036;-71
2024/01/04 09:49:00;;;;;;;2.20;2.20;;;8.30;99.90;;;;;;5111998;28;20393;-71
2024/01/04 09:51:28;;;;;;;2.38;2.28;;;8.40;99.90;;;;;;5114384;28;20548;-71
2024/01/04 09:53:54;;;;;;;2.75;2.55;;;8.40;99.90;;;;;;5115678;28;20038;-71
2024/01/04 09:56:21;;;;;;;1.90;1.90;;;8.40;99.90;;;;;;5114835;28;20042;-72
2024/01/04 09:58:48;;;;;;;2.40;2.30;;;8.40;99.90;;;;;;5100597;28;20087;-72
2024/01/04 10:01:20;;;;;;;2.30;2.20;;;8.50;99.90;;;;;;5111095;28;20099;-71
2024/01/04 10:03:49;;;;;;;;;;;8.60;99.90;;;;;;5115040;28;20105;-71
2024/01/04 10:06:32;;;;;;;3.92;2.53;;;8.60;99.90;;;;;;5114809;28;19918;-72
2024/01/04 10:09:20;;;;;;;1.63;1.63;;;8.60;99.90;;;;;;5113446;28;20107;-72
2024/01/04 10:11:55;;;;;;;1.90;1.90;;;8.60;99.90;;;;;;5100356;28;20426;-72
2024/01/04 10:14:26;;;;;;;2.65;2.55;;;8.60;99.90;;;;;;5111152;28;20492;-72
2024/01/04 10:16:53;;;;;;;3.17;3.00;;;8.70;99.90;;;;;;5110668;28;20472;-72
2024/01/04 10:19:19;;;;;;;2.25;2.08;;;8.80;99.90;;;;;;5114339;28;20032;-72
2024/01/04 10:21:45;;;;;;;2.67;1.85;;;8.80;99.90;;;;;;5099569;28;20107;-72
2024/01/04 10:24:15;;;;;;;4.60;2.25;;;8.80;99.90;;;;;;5093035;28;20139;-72
2024/01/04 10:26:44;;;;;;;1.80;1.77;;;8.90;99.90;;;;;;5099964;28;20032;-72
2024/01/04 10:29:11;;;;;;;1.58;1.58;;;8.90;99.90;;;;;;5113839;28;20216;-72
2024/01/04 10:31:37;;;;;;;2.65;2.33;;;9.00;99.90;;;;;;5105912;28;20039;-72
2024/01/04 10:34:02;;;;;;;2.45;2.17;;;9.10;99.90;;;;;;5104624;27;20119;-71
2024/01/04 10:36:28;;;;;;;1.60;1.60;;;9.10;99.90;;;;;;5094130;28;20051;-72
2024/01/04 10:39:01;;;;;;;1.55;1.45;;;9.20;99.90;;;;;;5093939;28;20077;-72
2024/01/04 10:41:29;;;;;;;3.67;1.70;;;9.30;99.90;;;;;;5094098;28;20032;-72
2024/01/04 10:44:05;;;;;;;1.70;1.60;;;9.50;99.90;;;;;;5093740;28;20031;-72
2024/01/04 10:46:34;;;;;;;1.30;1.30;;;9.70;99.90;;;;;;5094349;28;20123;-72
2024/01/04 10:49:02;;;;;;;1.10;1.10;;;10.20;99.90;;;;;;5100880;28;20023;-72
2024/01/04 10:51:29;;;;;;;1.42;1.42;;;10.60;99.90;;;;;;5128330;27;20100;-72
2024/01/04 10:54:01;;;;;;;3.53;3.20;;;10.90;99.90;;;;;;5135096;27;20069;-72
2024/01/04 10:56:32;;;;;;;1.98;1.95;;;11.10;99.90;;;;;;5093709;28;20474;-71
2024/01/04 10:58:59;;;;;;;2.50;2.40;;;11.20;99.90;;;;;;5114301;28;20110;-71
2024/01/04 11:01:25;;;;;;;2.58;2.47;;;11.20;99.90;;;;;;5114002;28;20035;-72
2024/01/04 11:03:54;;;;;;;3.58;3.28;;;11.30;99.90;;;;;;5113836;28;20128;-71
2024/01/04 11:06:23;;;;;;;3.17;2.97;;;11.30;99.90;;;;;;5109321;28;20067;-71
2024/01/04 11:08:49;;;;;;;2.67;2.55;;;11.40;99.90;;;;;;5095852;28;20110;-72
2024/01/04 11:11:16;;;;;;;2.30;2.20;;;11.40;99.90;;;;;;5093438;28;20111;-72
2024/01/04 11:13:42;;;;;;;2.80;2.70;;;11.40;99.90;;;;;;5093531;28;20016;-72
2024/01/04 11:16:27;;;;;;;2.50;2.40;;;11.50;99.90;;;;;;5093647;28;20020;-72
2024/01/04 11:19:11;;;;;;;2.60;2.50;;;11.60;99.90;;;;;;5093899;28;20420;-72
2024/01/04 11:22:07;;;;;;;2.80;2.70;;;11.70;99.90;;;;;;5093765;28;20143;-71
2024/01/04 11:25:18;;;;;;;2.63;2.53;;;11.70;99.90;;;;;;5098001;28;20028;-72
2024/01/04 11:27:44;;;;;;;3.17;3.00;;;11.60;99.90;;;;;;5102784;27;20479;-71
2024/01/04 11:30:11;;;;;;;3.30;3.20;;;11.50;99.90;;;;;;5134124;27;20019;-71
2024/01/04 11:32:38;;;;;;;3.35;3.22;;;11.40;99.90;;;;;;5133954;27;20046;-71
2024/01/04 11:35:05;;;;;;;3.33;3.13;;;11.30;99.90;;;;;;5134384;27;20053;-72
2024/01/04 11:37:32;;;;;;;3.30;3.13;;;11.30;99.90;;;;;;5134115;27;20043;-71
2024/01/04 11:40:07;;;;;;;3.75;3.55;;;11.10;99.90;;;;;;5134139;27;20070;-71
2024/01/04 11:42:42;;;;;;;5.22;3.33;;;11.00;99.90;;;;;;5121949;27;20024;-71
2024/01/04 11:45:18;;;;;;;3.75;3.45;;;10.80;99.90;;;;;;5107433;28;20054;-72
2024/01/04 11:47:46;;;;;;;3.78;3.58;;;10.60;99.90;;;;;;5110705;28;20484;-71
2024/01/04 11:50:16;;;;;;;3.40;3.17;;;10.50;99.90;;;;;;5112422;28;20034;-71
2024/01/04 11:52:43;;;;;;;3.10;3.00;;;10.30;99.90;;;;;;5112704;28;20465;-71
2024/01/04 11:55:09;;;;;;;3.85;3.55;;;10.20;99.90;;;;;;5112460;28;20034;-71
2024/01/04 11:57:35;;;;;;;3.92;3.47;;;10.10;99.90;;;;;;5112162;28;20028;-72
2024/01/04 12:00:12;;;;;;;5.18;3.78;;;10.00;99.90;;;;;;5113044;28;20467;-71
2024/01/04 12:02:38;;;;;;;4.05;3.75;;;10.00;99.90;;;;;;5112153;28;20384;-71
2024/01/04 12:05:05;;;;;;;3.53;3.33;;;10.00;99.90;;;;;;5112240;28;20050;-71
2024/01/04 12:07:33;;;;;;;3.53;3.25;;;9.90;99.90;;;;;;5111221;28;20832;-71
2024/01/04 12:09:59;;;;;;;3.53;3.33;;;9.90;99.90;;;;;;5110156;28;20461;-71
2024/01/04 12:12:25;;;;;;;2.83;2.63;;;10.00;99.90;;;;;;5104121;28;20130;-71
2024/01/04 12:14:50;;;;;;;3.60;3.30;;;10.00;99.90;;;;;;5112848;28;20447;-71
2024/01/04 12:17:16;;;;;;;3.35;3.15;;;10.00;99.90;;;;;;5095091;28;20035;-71
2024/01/04 12:19:41;;;;;;;2.55;2.40;;;10.10;99.90;;;;;;5112436;28;20384;-71
2024/01/04 12:22:07;;;;;;;3.30;3.10;;;10.20;99.90;;;;;;5112625;28;20031;-71
2024/01/04 12:24:33;;;;;;;2.45;2.33;;;10.20;99.90;;;;;;5107556;28;20032;-71
2024/01/04 12:26:58;;;;;;;2.63;2.53;;;10.30;99.90;;;;;;5112213;28;20023;-71
2024/01/04 12:29:25;;;;;;;4.85;2.85;;;10.40;99.90;;;;;;5112924;28;20035;-71
2024/01/04 12:31:51;;;;;;;2.67;2.53;;;10.50;99.90;;;;;;5110057;28;20055;-71
2024/01/04 12:34:18;;;;;;;2.35;2.25;;;10.70;99.90;;;;;;5110179;28;20042;-71
2024/01/04 12:36:44;;;;;;;1.38;1.38;;;11.00;99.90;;;;;;5108621;28;20061;-71
2024/01/04 12:39:12;;;;;;;1.58;1.58;;;11.60;99.90;;;;;;5112271;28;20115;-71
2024/01/04 12:41:39;;;;;;;3.17;2.90;;;12.20;99.90;;;;;;5112576;28;20126;-71
2024/01/04 12:44:07;;;;;;;3.47;3.30;;;12.60;99.90;;;;;;5108940;28;20019;-71
2024/01/04 12:46:33;;;;;;;3.25;3.10;;;12.70;99.90;;;;;;5112688;28;20081;-71
2024/01/04 12:49:09;;;;;;;3.72;3.53;;;12.70;99.90;;;;;;5112544;28;20027;-71